^^
Datos históricos de la estación: Murcia-Puente Tocinos
Diario Informe para Agosto 26, 2019 Unidades:  Métrico    Ingés   Ambas
Diario Semanal Mensual Anual
  Máxima: Mínima: Promedio:
Temperatura: 32.4 °C 22.3 °C 26.4 °C
Punto de rocio: 21 °C 17.7 °C 19.3 °C
Humedad: 81% 41.7% 66%
Velocidad viento: 20.9km/h 0km/h 7.4km/h
Racha viento: 37km/h - -
Viento- - SSE
Presión: 1016.3 hPa 1012.9 hPa -
Precipitación: 0.0 mm    
 
 
Tabla de datos para Agosto 26, 2019
Hora Temperatura Punto de rocio Presión Viento Velocidad viento Racha viento Humedad Intensidad lluvia(por hora) Nubes
00:04 23.3 °C 19.4 °C 1015.4 hPa NNE 8.4 km/h 13 km/h 79% 0.0 mm
00:09 23.2 °C 19.3 °C 1015.1 hPa NNE 8.4 km/h 12.9 km/h 79% 0.0 mm
00:14 23.2 °C 19.3 °C 1015.1 hPa NNE 7.6 km/h 11.3 km/h 79% 0.0 mm
00:19 23.2 °C 19.3 °C 1015.3 hPa NNE 7.3 km/h 10 km/h 79% 0.0 mm
00:24 23.1 °C 19.4 °C 1015.3 hPa NE 6.9 km/h 11.1 km/h 79.8% 0.0 mm
00:29 23.1 °C 19.4 °C 1015.3 hPa NE 7.2 km/h 13 km/h 80% 0.0 mm
00:34 23.1 °C 19.4 °C 1015.3 hPa NE 7.6 km/h 13 km/h 80% 0.0 mm
00:39 23 °C 19.4 °C 1015.2 hPa NE 7.6 km/h 11.3 km/h 80% 0.0 mm
00:44 23 °C 19.4 °C 1015.2 hPa NE 7.6 km/h 11.3 km/h 80% 0.0 mm
00:49 22.9 °C 19.3 °C 1015.2 hPa NNE 6.9 km/h 9.7 km/h 80% 0.0 mm
00:54 22.9 °C 19.3 °C 1015.2 hPa NNO 5.8 km/h 8 km/h 80% 0.0 mm
00:59 22.9 °C 19.3 °C 1015.2 hPa NO 5 km/h 7.6 km/h 80% 0.0 mm
01:04 22.9 °C 19.3 °C 1015.2 hPa Oeste 3.9 km/h 8.7 km/h 80% 0.0 mm
01:09 22.9 °C 19.3 °C 1015.0 hPa Oeste 3.9 km/h 8.4 km/h 80% 0.0 mm
01:14 22.9 °C 19.3 °C 1015.0 hPa Oeste 3.9 km/h 8 km/h 80% 0.0 mm
01:19 22.9 °C 19.3 °C 1015.0 hPa Oeste 4.2 km/h 8 km/h 80% 0.0 mm
01:24 22.9 °C 19.3 °C 1015.0 hPa Oeste 4.7 km/h 8 km/h 80% 0.0 mm
01:29 22.9 °C 19.3 °C 1015.0 hPa Oeste 4 km/h 4.8 km/h 80% 0.0 mm
01:34 22.9 °C 19.3 °C 1015.0 hPa Oeste 2.9 km/h 4.8 km/h 80% 0.0 mm
01:39 22.9 °C 19.3 °C 1014.7 hPa Oeste 1.7 km/h 4.8 km/h 80% 0.0 mm
01:44 23 °C 19.4 °C 1014.7 hPa Calm   3.2 km/h 80% 0.0 mm
01:49 23 °C 19.4 °C 1014.7 hPa Oeste 0.9 km/h 7.4 km/h 80% 0.0 mm
01:54 23 °C 19.4 °C 1014.5 hPa Oeste 2.2 km/h 8 km/h 80% 0.0 mm
01:59 23.1 °C 19.4 °C 1014.5 hPa Oeste 2.6 km/h 7.4 km/h 79.6% 0.0 mm
02:04 23.1 °C 19.3 °C 1014.5 hPa Oeste 3.2 km/h 8 km/h 79% 0.0 mm
02:09 23.1 °C 19.3 °C 1014.2 hPa OSO 3.5 km/h 8.4 km/h 79% 0.0 mm
02:14 23.1 °C 19.3 °C 1014.2 hPa OSO 3.9 km/h 8 km/h 79% 0.0 mm
02:19 23.1 °C 19.3 °C 1014.2 hPa Oeste 3.9 km/h 8 km/h 79% 0.0 mm
02:24 23.1 °C 19.2 °C 1014.0 hPa OSO 3.9 km/h 8 km/h 78.8% 0.0 mm
02:29 23.1 °C 19.1 °C 1014.0 hPa OSO 3.6 km/h 8 km/h 78.1% 0.0 mm
02:34 23.1 °C 19.1 °C 1014.1 hPa OSO 3.2 km/h 9.3 km/h 78% 0.0 mm
02:39 23.1 °C 19.1 °C 1014.1 hPa Oeste 3.5 km/h 9.7 km/h 78% 0.0 mm
02:44 23.1 °C 19.1 °C 1014.1 hPa SO 3.9 km/h 9.5 km/h 78% 0.0 mm
02:49 23.1 °C 19.1 °C 1014.1 hPa SO 4.3 km/h 10 km/h 78% 0.0 mm
02:54 23.1 °C 19.1 °C 1013.9 hPa SSO 5 km/h 11.1 km/h 78% 0.0 mm
02:59 23.1 °C 19.1 °C 1013.9 hPa SSO 5.8 km/h 13 km/h 78% 0.0 mm
03:04 23.1 °C 19 °C 1013.9 hPa Sur 6.9 km/h 13 km/h 78% 0.0 mm
03:09 23 °C 18.9 °C 1013.9 hPa Sur 7.5 km/h 13.7 km/h 78% 0.0 mm
03:14 22.8 °C 18.9 °C 1013.9 hPa SSE 8.4 km/h 16.7 km/h 78.6% 0.0 mm
03:19 22.7 °C 19 °C 1013.9 hPa SSE 9.2 km/h 16.7 km/h 79.5% 0.0 mm
03:24 22.6 °C 19 °C 1013.8 hPa SSE 10.3 km/h 16.1 km/h 80% 0.0 mm
03:29 22.5 °C 18.9 °C 1013.8 hPa Sur 10 km/h 14.5 km/h 80.3% 0.0 mm
03:34 22.4 °C 19 °C 1013.9 hPa SSE 9.5 km/h 13 km/h 81% 0.0 mm
03:39 22.5 °C 19.1 °C 1013.9 hPa SSE 9 km/h 11.3 km/h 81% 0.0 mm
03:44 22.6 °C 19 °C 1013.9 hPa SSE 8.4 km/h 14.8 km/h 80.2% 0.0 mm
03:49 22.6 °C 19 °C 1013.9 hPa SSE 8 km/h 14.5 km/h 80% 0.0 mm
03:54 22.6 °C 19 °C 1013.8 hPa SE 7.6 km/h 11.3 km/h 80% 0.0 mm
03:59 22.6 °C 19 °C 1013.8 hPa ESE 6.8 km/h 9.7 km/h 80% 0.0 mm
04:04 22.5 °C 18.9 °C 1013.9 hPa ESE 5.8 km/h 11.1 km/h 80% 0.0 mm
04:09 22.4 °C 18.8 °C 1013.9 hPa ESE 6.2 km/h 11.9 km/h 80% 0.0 mm
04:14 22.4 °C 18.8 °C 1013.9 hPa ESE 6.9 km/h 13.7 km/h 80% 0.0 mm
04:19 22.5 °C 18.9 °C 1014.0 hPa ESE 7.2 km/h 16.1 km/h 80% 0.0 mm
04:24 22.6 °C 19 °C 1014.0 hPa ESE 7.6 km/h 19 km/h 80% 0.0 mm
04:29 22.7 °C 19 °C 1014.0 hPa ESE 8.7 km/h 20.4 km/h 79.8% 0.0 mm
04:34 22.8 °C 18.9 °C 1014.1 hPa ESE 10.3 km/h 20.9 km/h 79% 0.0 mm
04:39 22.8 °C 19 °C 1014.1 hPa Este 9.5 km/h 16.1 km/h 79% 0.0 mm
04:44 22.8 °C 18.9 °C 1014.1 hPa ESE 8.4 km/h 13.7 km/h 79% 0.0 mm
04:49 22.8 °C 18.9 °C 1014.2 hPa ESE 8.1 km/h 14.5 km/h 79% 0.0 mm
04:54 22.8 °C 19 °C 1014.2 hPa Este 7.6 km/h 12.9 km/h 79% 0.0 mm
04:59 22.8 °C 19 °C 1014.2 hPa Este 6.4 km/h 9.7 km/h 79.5% 0.0 mm
05:04 22.8 °C 19 °C 1014.3 hPa Este 5 km/h 9.7 km/h 79.2% 0.0 mm
05:09 22.8 °C 19.2 °C 1014.3 hPa ENE 5 km/h 10 km/h 80% 0.0 mm
05:14 22.7 °C 19.1 °C 1014.3 hPa ENE 5 km/h 9.7 km/h 80% 0.0 mm
05:19 22.7 °C 19.1 °C 1014.4 hPa Este 4.3 km/h 8 km/h 80% 0.0 mm
05:24 22.7 °C 19.1 °C 1014.4 hPa Este 3.2 km/h 8 km/h 80% 0.0 mm
05:29 22.7 °C 19.1 °C 1014.4 hPa Este 3.2 km/h 7.4 km/h 80% 0.0 mm
05:34 22.7 °C 19.1 °C 1014.5 hPa Este 3.2 km/h 8 km/h 80% 0.0 mm
05:39 22.7 °C 18.9 °C 1014.5 hPa Oeste 3.8 km/h 11.1 km/h 79.3% 0.0 mm
05:44 22.7 °C 18.9 °C 1014.5 hPa ONO 4.7 km/h 11.3 km/h 79% 0.0 mm
05:49 22.7 °C 18.9 °C 1014.7 hPa North 4.3 km/h 9.7 km/h 79.4% 0.0 mm
05:54 22.6 °C 18.9 °C 1014.7 hPa NNO 3.9 km/h 8 km/h 80% 0.0 mm
05:59 22.4 °C 18.8 °C 1014.7 hPa NNO 3.4 km/h 8 km/h 80% 0.0 mm
06:04 22.4 °C 18.8 °C 1014.9 hPa NO 2.9 km/h 6.9 km/h 80% 0.0 mm
06:09 22.4 °C 18.8 °C 1014.9 hPa ONO 2.9 km/h 8 km/h 80% 0.0 mm
06:14 22.4 °C 19 °C 1014.9 hPa ONO 2.9 km/h 8 km/h 80.8% 0.0 mm
06:19 22.4 °C 18.9 °C 1015.0 hPa NO 3.3 km/h 8 km/h 80.4% 0.0 mm
06:24 22.4 °C 18.8 °C 1015.0 hPa ONO 3.9 km/h 8 km/h 80% 0.0 mm
06:29 22.4 °C 18.8 °C 1015.0 hPa ONO 3.5 km/h 8 km/h 80% 0.0 mm
06:34 22.4 °C 18.8 °C 1015.1 hPa ONO 2.9 km/h 5 km/h 80% 0.0 mm
06:39 22.4 °C 19 °C 1015.1 hPa NO 2.6 km/h 5.8 km/h 80.8% 0.0 mm
06:44 22.4 °C 19 °C 1015.1 hPa NO 2.2 km/h 7.6 km/h 81% 0.0 mm
06:49 22.3 °C 18.9 °C 1015.2 hPa NNO 2.9 km/h 8 km/h 81% 0.0 mm
06:54 22.3 °C 18.9 °C 1015.2 hPa NO 3.9 km/h 9.5 km/h 81% 0.0 mm
06:59 22.3 °C 18.9 °C 1015.2 hPa Oeste 4.3 km/h 9.7 km/h 81% 0.0 mm
07:04 22.3 °C 19 °C 1015.3 hPa ONO 5 km/h 9.7 km/h 81% 0.0 mm
07:09 22.4 °C 19 °C 1015.3 hPa NO 4.5 km/h 9.5 km/h 81% 0.0 mm
07:14 22.5 °C 19 °C 1015.3 hPa NNO 3.9 km/h 9.7 km/h 81% 0.0 mm
07:19 22.5 °C 18.9 °C 1015.4 hPa NO 3.9 km/h 9.5 km/h 80.3% 0.0 mm
07:24 22.6 °C 18.9 °C 1015.4 hPa ONO 3.9 km/h 9.7 km/h 80% 0.0 mm
07:29 22.6 °C 19 °C 1015.4 hPa Oeste 4.3 km/h 9.7 km/h 80% 0.0 mm
07:34 22.7 °C 19 °C 1015.4 hPa ONO 5 km/h 9.7 km/h 79.6% 0.0 mm
07:39 22.7 °C 18.9 °C 1015.4 hPa Oeste 4.9 km/h 9.7 km/h 79% 0.0 mm
07:44 22.8 °C 18.9 °C 1015.4 hPa ONO 4.7 km/h 8 km/h 79% 0.0 mm
07:49 22.8 °C 19 °C 1015.5 hPa Oeste 4.3 km/h 8 km/h 79% 0.0 mm
07:54 22.9 °C 19 °C 1015.5 hPa OSO 3.9 km/h 8 km/h 78.8% 0.0 mm
07:59 23 °C 19 °C 1015.5 hPa Oeste 3.4 km/h 8 km/h 78% 0.0 mm
08:04 23.1 °C 19.1 °C 1015.5 hPa ONO 2.9 km/h 8 km/h 78% 0.0 mm
08:09 23.2 °C 19.1 °C 1015.5 hPa NO 3.7 km/h 8 km/h 77.8% 0.0 mm
08:14 23.2 °C 18.9 °C 1015.5 hPa NO 4.7 km/h 8 km/h 77% 0.0 mm
08:19 23.2 °C 18.9 °C 1015.6 hPa NO 4.3 km/h 8 km/h 77% 0.0 mm
08:24 23.3 °C 19 °C 1015.6 hPa NO 3.9 km/h 8 km/h 77% 0.0 mm
08:29 23.3 °C 19.1 °C 1015.6 hPa NO 3.2 km/h 5.8 km/h 77% 0.0 mm
08:34 23.4 °C 19 °C 1015.7 hPa ONO 2.2 km/h 7.4 km/h 76.3% 0.0 mm
08:39 23.5 °C 19 °C 1015.7 hPa ONO 2.7 km/h 8 km/h 76% 0.0 mm
08:44 23.6 °C 19.1 °C 1015.7 hPa ONO 3.2 km/h 5.6 km/h 76% 0.0 mm
08:49 23.7 °C 19.2 °C 1015.9 hPa NO 1.9 km/h 4.8 km/h 76% 0.0 mm
08:54 23.7 °C 19.2 °C 1015.9 hPa Calm   3.2 km/h 76% 0.0 mm
08:59 23.8 °C 19.3 °C 1015.9 hPa Calm   9.3 km/h 76% 0.0 mm
09:04 23.8 °C 19.3 °C 1016.0 hPa Calm   9.7 km/h 76% 0.0 mm
09:09 23.7 °C 19.3 °C 1016.0 hPa NE 1.6 km/h 8.4 km/h 76% 0.0 mm
09:14 23.7 °C 19.2 °C 1016.0 hPa NE 3.9 km/h 8 km/h 76% 0.0 mm
09:19 23.7 °C 19.3 °C 1016.0 hPa NNE 4.2 km/h 9.3 km/h 76% 0.0 mm
09:24 23.8 °C 19.3 °C 1016.0 hPa NNE 4.7 km/h 9.7 km/h 76% 0.0 mm
09:29 23.8 °C 19.3 °C 1016.0 hPa NNE 3.9 km/h 6.4 km/h 75.8% 0.0 mm
09:34 23.9 °C 19.2 °C 1016.1 hPa NNE 2.9 km/h 6.4 km/h 75% 0.0 mm
09:39 23.9 °C 19.2 °C 1016.1 hPa Este 3 km/h 8 km/h 75% 0.0 mm
09:44 24 °C 19.3 °C 1016.1 hPa ESE 3.2 km/h 10.3 km/h 75% 0.0 mm
09:49 24.1 °C 19.4 °C 1016.3 hPa Este 3.9 km/h 11.3 km/h 75% 0.0 mm
09:54 24.1 °C 19.4 °C 1016.3 hPa ENE 5 km/h 10 km/h 75% 0.0 mm
09:59 24.2 °C 19.4 °C 1016.3 hPa ENE 5 km/h 9.7 km/h 74.6% 0.0 mm
10:04 24.2 °C 19.3 °C 1016.3 hPa Este 5 km/h 9.7 km/h 74% 0.0 mm
10:09 24.4 °C 19.4 °C 1016.3 hPa Este 4.5 km/h 8 km/h 74% 0.0 mm
10:14 24.7 °C 19.6 °C 1016.3 hPa ESE 3.9 km/h 9.5 km/h 73.3% 0.0 mm
10:19 24.8 °C 19.5 °C 1016.3 hPa SSO 4.2 km/h 9.7 km/h 72.2% 0.0 mm
10:24 25.1 °C 19.5 °C 1016.2 hPa SE 4.7 km/h 9.7 km/h 71.3% 0.0 mm
10:29 25.1 °C 19.4 °C 1016.2 hPa Sur 4.7 km/h 8.4 km/h 71% 0.0 mm
10:34 25.2 °C 19.5 °C 1016.2 hPa ONO 4.7 km/h 8 km/h 71% 0.0 mm
10:39 25.3 °C 19.5 °C 1016.1 hPa ONO 4.3 km/h 11.1 km/h 70.3% 0.0 mm
10:44 25.5 °C 19.6 °C 1016.1 hPa ONO 3.9 km/h 11.3 km/h 70% 0.0 mm
10:49 25.7 °C 19.6 °C 1016.1 hPa OSO 4.2 km/h 10 km/h 69.1% 0.0 mm
10:54 25.7 °C 19.4 °C 1016.1 hPa Oeste 4.7 km/h 9.7 km/h 68.1% 0.0 mm
10:59 25.8 °C 19.5 °C 1016.1 hPa Oeste 4.3 km/h 12.2 km/h 68.1% 0.0 mm
11:04 25.8 °C 19.5 °C 1016.1 hPa Oeste 3.9 km/h 13 km/h 68% 0.0 mm
11:09 25.8 °C 19.4 °C 1016.0 hPa Oeste 5 km/h 12.9 km/h 68% 0.0 mm
11:14 25.8 °C 19.4 °C 1016.0 hPa ONO 6.9 km/h 9.7 km/h 68% 0.0 mm
11:19 25.9 °C 19.4 °C 1016.0 hPa North 5.7 km/h 11.1 km/h 67.3% 0.0 mm
11:24 26.2 °C 19.5 °C 1016.0 hPa NNE 3.9 km/h 11.3 km/h 66.6% 0.0 mm
11:29 26.5 °C 19.4 °C 1016.0 hPa NO 3.4 km/h 7.4 km/h 65% 0.0 mm
11:34 26.8 °C 19.4 °C 1016.0 hPa NNO 2.9 km/h 10.3 km/h 63.7% 0.0 mm
11:39 26.8 °C 19.4 °C 1015.9 hPa North 4 km/h 11.3 km/h 63.7% 0.0 mm
11:44 26.8 °C 19.4 °C 1015.9 hPa North 5.8 km/h 11.3 km/h 63.8% 0.0 mm
11:49 27.1 °C 19.3 °C 1016.0 hPa Sur 5 km/h 8.4 km/h 62.6% 0.0 mm
11:54 27.2 °C 19.3 °C 1016.0 hPa Oeste 3.9 km/h 11.1 km/h 62.1% 0.0 mm
11:59 27.4 °C 19.2 °C 1016.0 hPa SSO 4.2 km/h 11.3 km/h 61.1% 0.0 mm
12:04 27.4 °C 19.2 °C 1016.0 hPa SSE 4.7 km/h 11.1 km/h 60.8% 0.0 mm
12:09 27.6 °C 19.2 °C 1015.9 hPa SE 4.8 km/h 11.3 km/h 60.3% 0.0 mm
12:14 27.7 °C 19 °C 1015.9 hPa ONO 5 km/h 13.7 km/h 59% 0.0 mm
12:19 27.6 °C 18.9 °C 1015.9 hPa NO 5.7 km/h 14.5 km/h 59% 0.0 mm
12:24 27.5 °C 19 °C 1015.8 hPa NO 6.9 km/h 12.9 km/h 59.8% 0.0 mm
12:29 27.5 °C 19 °C 1015.8 hPa NO 7.2 km/h 13.7 km/h 60% 0.0 mm
12:34 27.4 °C 19 °C 1015.8 hPa NNO 7.6 km/h 14.5 km/h 60% 0.0 mm
12:39 27.5 °C 18.9 °C 1015.8 hPa SE 6.6 km/h 13.7 km/h 59.4% 0.0 mm
12:44 27.7 °C 18.9 °C 1015.8 hPa ENE 5 km/h 14.5 km/h 59% 0.0 mm
12:49 27.8 °C 19.1 °C 1015.8 hPa SE 5 km/h 13 km/h 58.9% 0.0 mm
12:54 28.1 °C 19.1 °C 1015.7 hPa SSO 5 km/h 14.8 km/h 58.1% 0.0 mm
12:59 28.3 °C 19.1 °C 1015.7 hPa SSE 5.8 km/h 14.8 km/h 57.5% 0.0 mm
13:04 28.4 °C 19.1 °C 1015.7 hPa SSE 6.9 km/h 14.8 km/h 57% 0.0 mm
13:09 28.3 °C 19.1 °C 1015.5 hPa SSO 8.3 km/h 19 km/h 57.2% 0.0 mm
13:14 28.2 °C 19.2 °C 1015.5 hPa Sur 10.3 km/h 19.3 km/h 58% 0.0 mm
13:19 28.3 °C 19.2 °C 1015.5 hPa SSE 9.2 km/h 15.6 km/h 57.6% 0.0 mm
13:24 28.5 °C 19.2 °C 1015.4 hPa Sur 7.6 km/h 16.1 km/h 57.1% 0.0 mm
13:29 28.6 °C 19.2 °C 1015.4 hPa OSO 7.9 km/h 16.1 km/h 57% 0.0 mm
13:34 28.8 °C 19.2 °C 1015.4 hPa SO 8.4 km/h 13 km/h 56.1% 0.0 mm
13:39 29.2 °C 19.2 °C 1015.1 hPa Sur 6.9 km/h 12.9 km/h 55.1% 0.0 mm
13:44 29.4 °C 19.3 °C 1015.1 hPa SSE 4.7 km/h 11.1 km/h 54.8% 0.0 mm
13:49 29.7 °C 19.4 °C 1015.1 hPa SE 4.7 km/h 13 km/h 54% 0.0 mm
13:54 29.8 °C 19.2 °C 1015.0 hPa Sur 4.7 km/h 12.9 km/h 53.1% 0.0 mm
13:59 29.9 °C 19.3 °C 1015.0 hPa OSO 4.7 km/h 11.1 km/h 53% 0.0 mm
14:04 29.8 °C 19.2 °C 1015.0 hPa NO 4.7 km/h 11.9 km/h 53% 0.0 mm
14:09 29.9 °C 19.3 °C 1014.8 hPa NO 4.8 km/h 11.3 km/h 53.2% 0.0 mm
14:14 30.2 °C 19.3 °C 1014.8 hPa ONO 5 km/h 14.8 km/h 52.1% 0.0 mm
14:19 30.2 °C 19.3 °C 1014.8 hPa North 6 km/h 14.5 km/h 52.3% 0.0 mm
14:24 30.2 °C 19.3 °C 1014.6 hPa ENE 7.6 km/h 18.5 km/h 52.1% 0.0 mm
14:29 30.1 °C 19.2 °C 1014.6 hPa ENE 7.6 km/h 19.3 km/h 52% 0.0 mm
14:34 30.2 °C 19.2 °C 1014.6 hPa NE 7.6 km/h 19 km/h 51.8% 0.0 mm
14:39 30.3 °C 19.1 °C 1014.5 hPa North 8.4 km/h 19.3 km/h 51.1% 0.0 mm
14:44 30.5 °C 19.2 °C 1014.5 hPa NNE 9.5 km/h 14.8 km/h 51% 0.0 mm
14:49 30.8 °C 19 °C 1014.5 hPa NNE 9 km/h 20.4 km/h 49.5% 0.0 mm
14:54 31 °C 19 °C 1014.4 hPa North 8.4 km/h 20.9 km/h 49% 0.0 mm
14:59 31.1 °C 19 °C 1014.4 hPa NNE 8.9 km/h 19.3 km/h 48.7% 0.0 mm
15:04 31.2 °C 19.2 °C 1014.4 hPa NNE 9.5 km/h 14.8 km/h 49% 0.0 mm
15:09 31.3 °C 19.3 °C 1014.1 hPa NE 8.7 km/h 15.6 km/h 49% 0.0 mm
15:14 31.4 °C 19.3 °C 1014.1 hPa NE 7.6 km/h 20.4 km/h 48.5% 0.0 mm
15:19 31.6 °C 19.9 °C 1014.1 hPa NE 8.7 km/h 22.2 km/h 50% 0.0 mm
15:24 31.7 °C 20.1 °C 1013.9 hPa ENE 10.3 km/h 25.9 km/h 50.6% 0.0 mm
15:29 31.6 °C 20.2 °C 1013.9 hPa Este 10.9 km/h 25.7 km/h 51% 0.0 mm
15:34 31.8 °C 20.7 °C 1013.9 hPa Este 11.9 km/h 24.1 km/h 51.8% 0.0 mm
15:39 31.8 °C 20.9 °C 1013.9 hPa Este 11.9 km/h 24.1 km/h 52.7% 0.0 mm
15:44 31.6 °C 21 °C 1013.9 hPa NE 11.9 km/h 28.2 km/h 53.3% 0.0 mm
15:49 31.3 °C 20.8 °C 1013.9 hPa NE 13.7 km/h 30.6 km/h 53.8% 0.0 mm
15:54 31.1 °C 20.8 °C 1013.9 hPa NE 16.1 km/h 30.6 km/h 54.2% 0.0 mm
15:59 31 °C 20.6 °C 1013.9 hPa ENE 15.9 km/h 27.4 km/h 53.9% 0.0 mm
16:04 30.9 °C 20.4 °C 1013.9 hPa NE 15.6 km/h 29.8 km/h 53.6% 0.0 mm
16:09 30.8 °C 20.4 °C 1013.9 hPa NE 15.6 km/h 30.6 km/h 53.7% 0.0 mm
16:14 30.9 °C 20.1 °C 1013.9 hPa ENE 15.6 km/h 25.9 km/h 52.7% 0.0 mm
16:19 31.2 °C 20 °C 1013.9 hPa Este 14 km/h 22.5 km/h 51.3% 0.0 mm
16:24 31.3 °C 20 °C 1013.8 hPa ENE 11.1 km/h 24.5 km/h 51.2% 0.0 mm
16:29 31.6 °C 20 °C 1013.8 hPa NE 10.6 km/h 25.1 km/h 50.5% 0.0 mm
16:34 31.5 °C 19.8 °C 1013.8 hPa NE 10 km/h 25.9 km/h 50% 0.0 mm
16:39 31.6 °C 19.7 °C 1013.6 hPa ENE 11.4 km/h 22.5 km/h 49.4% 0.0 mm
16:44 31.8 °C 19.7 °C 1013.6 hPa NE 13.7 km/h 25.6 km/h 48.7% 0.0 mm
16:49 31.8 °C 19.5 °C 1013.6 hPa NE 13.7 km/h 25.9 km/h 48% 0.0 mm
16:54 31.9 °C 19.4 °C 1013.4 hPa NE 13.7 km/h 27.8 km/h 47.7% 0.0 mm
16:59 32.1 °C 19.2 °C 1013.4 hPa NE 13.8 km/h 29.6 km/h 46.5% 0.0 mm
17:04 32.1 °C 18.8 °C 1013.4 hPa NE 14 km/h 29 km/h 45.5% 0.0 mm
17:09 32.1 °C 18.6 °C 1013.2 hPa NE 14 km/h 25.7 km/h 45% 0.0 mm
17:14 32.2 °C 18.6 °C 1013.2 hPa NE 14 km/h 29.6 km/h 44.5% 0.0 mm
17:19 32.1 °C 18.3 °C 1013.2 hPa NE 14.3 km/h 29 km/h 44% 0.0 mm
17:24 32.1 °C 18.2 °C 1013.1 hPa ENE 14.8 km/h 25.7 km/h 43.6% 0.0 mm
17:29 32.2 °C 18.3 °C 1013.1 hPa NNE 14.4 km/h 22.5 km/h 43.7% 0.0 mm
17:34 32.3 °C 17.8 °C 1013.1 hPa NNE 13.7 km/h 27.8 km/h 42.2% 0.0 mm
17:39 32.4 °C 17.8 °C 1013.0 hPa NE 13.8 km/h 27.4 km/h 42% 0.0 mm
17:44 32.3 °C 17.7 °C 1013.0 hPa NE 14 km/h 22.5 km/h 41.7% 0.0 mm
17:49 32.4 °C 18.1 °C 1013.0 hPa NE 14 km/h 28.2 km/h 42.8% 0.0 mm
17:54 32.2 °C 19.1 °C 1012.9 hPa NE 14 km/h 28.6 km/h 45.8% 0.0 mm
17:59 31.9 °C 20.3 °C 1012.9 hPa NE 16.5 km/h 32.3 km/h 50.6% 0.0 mm
18:04 31.4 °C 20.7 °C 1012.9 hPa NE 19.8 km/h 33.5 km/h 53% 0.0 mm
18:09 31.2 °C 20.7 °C 1012.9 hPa NE 20.2 km/h 33.8 km/h 53.9% 0.0 mm
18:14 30.9 °C 20.7 °C 1012.9 hPa NE 20.9 km/h 33.8 km/h 54.6% 0.0 mm
18:19 30.6 °C 20.8 °C 1013.0 hPa NE 20.5 km/h 33.8 km/h 55.9% 0.0 mm
18:24 30.2 °C 20.6 °C 1013.0 hPa NE 19.8 km/h 37 km/h 56.5% 0.0 mm
18:29 30.1 °C 20.2 °C 1013.0 hPa NE 19.5 km/h 37 km/h 55.6% 0.0 mm
18:34 30 °C 19.4 °C 1013.1 hPa ENE 19 km/h 32.2 km/h 52.8% 0.0 mm
18:39 30 °C 19.1 °C 1013.1 hPa ENE 18.5 km/h 31.5 km/h 52% 0.0 mm
18:44 29.8 °C 18.7 °C 1013.1 hPa ENE 17.2 km/h 32.2 km/h 51.4% 0.0 mm
18:49 30.1 °C 18.8 °C 1013.1 hPa ENE 16.5 km/h 29.6 km/h 51% 0.0 mm
18:54 30.2 °C 18.8 °C 1013.0 hPa ENE 15.6 km/h 29 km/h 50.6% 0.0 mm
18:59 30.3 °C 18.7 °C 1013.0 hPa ENE 14.7 km/h 29.6 km/h 49.9% 0.0 mm
19:04 30.3 °C 18.6 °C 1013.2 hPa ENE 13.7 km/h 29 km/h 49.5% 0.0 mm
19:09 30.3 °C 18.7 °C 1013.2 hPa ENE 13.5 km/h 24.1 km/h 49.8% 0.0 mm
19:14 30.4 °C 18.4 °C 1013.2 hPa Este 13 km/h 25.1 km/h 48.6% 0.0 mm
19:19 30.5 °C 18.3 °C 1013.2 hPa Este 12.7 km/h 25.9 km/h 48.2% 0.0 mm
19:24 30.4 °C 18.5 °C 1013.2 hPa ENE 12.2 km/h 25.7 km/h 49% 0.0 mm
19:29 30.5 °C 18.5 °C 1013.2 hPa ENE 11.8 km/h 20.9 km/h 49% 0.0 mm
19:34 30.4 °C 18.5 °C 1013.4 hPa Este 11.1 km/h 20.9 km/h 49% 0.0 mm
19:39 30.4 °C 18.7 °C 1013.4 hPa ENE 10.8 km/h 20.4 km/h 49.5% 0.0 mm
19:44 30.3 °C 18.9 °C 1013.4 hPa NE 10.3 km/h 20.9 km/h 50.5% 0.0 mm
19:49 30.2 °C 18.9 °C 1013.4 hPa ENE 10.3 km/h 19.3 km/h 50.9% 0.0 mm
19:54 30.2 °C 18.8 °C 1013.4 hPa NE 10.3 km/h 20.4 km/h 50.7% 0.0 mm
19:59 30.1 °C 18.8 °C 1013.4 hPa NE 10.7 km/h 20.9 km/h 51% 0.0 mm
20:04 30 °C 18.9 °C 1013.4 hPa ENE 11.1 km/h 19.3 km/h 51.4% 0.0 mm
20:09 30 °C 18.6 °C 1013.4 hPa NE 10.7 km/h 19.3 km/h 50.7% 0.0 mm
20:14 29.9 °C 18.7 °C 1013.4 hPa NE 10 km/h 19.3 km/h 51% 0.0 mm
20:19 29.9 °C 18.7 °C 1013.5 hPa NE 10 km/h 19.3 km/h 51.1% 0.0 mm
20:24 29.8 °C 18.9 °C 1013.5 hPa NE 10 km/h 19.8 km/h 52% 0.0 mm
20:29 29.7 °C 18.9 °C 1013.5 hPa NE 10.1 km/h 19.3 km/h 52.3% 0.0 mm
20:34 29.6 °C 19 °C 1013.7 hPa NE 10.3 km/h 15.6 km/h 53% 0.0 mm
20:39 29.5 °C 19.1 °C 1013.7 hPa NE 10.3 km/h 16.1 km/h 53.5% 0.0 mm
20:44 29.5 °C 19.2 °C 1013.7 hPa NE 9.5 km/h 13 km/h 54% 0.0 mm
20:49 29.4 °C 19.1 °C 1013.8 hPa NE 9 km/h 13 km/h 54% 0.0 mm
20:54 29.4 °C 19.1 °C 1013.8 hPa Este 8.4 km/h 12.9 km/h 54% 0.0 mm
20:59 29.3 °C 19.3 °C 1013.8 hPa ENE 7.5 km/h 10 km/h 54.9% 0.0 mm
21:04 29.2 °C 19.2 °C 1014.0 hPa Este 6.5 km/h 11.1 km/h 55.1% 0.0 mm
21:09 29.1 °C 19.4 °C 1014.0 hPa ESE 6.7 km/h 14.8 km/h 55.9% 0.0 mm
21:14 28.9 °C 19.4 °C 1014.0 hPa ESE 6.9 km/h 14.8 km/h 56.7% 0.0 mm
21:19 28.7 °C 19.5 °C 1014.1 hPa Este 7.5 km/h 14.5 km/h 57.7% 0.0 mm
21:24 28.5 °C 19.6 °C 1014.1 hPa ENE 8.4 km/h 11.3 km/h 58.5% 0.0 mm
21:29 28.3 °C 19.6 °C 1014.1 hPa Este 7.6 km/h 14 km/h 59.1% 0.0 mm
21:34 28.2 °C 19.8 °C 1014.3 hPa ESE 5.8 km/h 20.9 km/h 60.5% 0.0 mm
21:39 27.8 °C 20 °C 1014.3 hPa SE 7.9 km/h 20.9 km/h 62.5% 0.0 mm
21:44 27.6 °C 20.1 °C 1014.3 hPa SE 11.1 km/h 20.9 km/h 63.9% 0.0 mm
21:49 27.4 °C 20 °C 1014.6 hPa SE 11.1 km/h 20.9 km/h 64.1% 0.0 mm
21:54 27.3 °C 19.6 °C 1014.6 hPa ENE 11.1 km/h 20.4 km/h 62.9% 0.0 mm
21:59 27.2 °C 19.3 °C 1014.6 hPa ENE 10 km/h 20.9 km/h 62% 0.0 mm
22:04 27.1 °C 19.3 °C 1014.8 hPa NE 8.7 km/h 16.1 km/h 62.6% 0.0 mm
22:09 27 °C 19.3 °C 1014.8 hPa Este 8.6 km/h 16.7 km/h 63% 0.0 mm
22:14 26.9 °C 19.4 °C 1014.8 hPa Este 8.4 km/h 16.7 km/h 63.3% 0.0 mm
22:19 26.8 °C 19.5 °C 1014.9 hPa ESE 8.4 km/h 16.1 km/h 64.1% 0.0 mm
22:24 26.8 °C 19.7 °C 1014.9 hPa Este 8.4 km/h 13.7 km/h 65% 0.0 mm
22:29 26.7 °C 19.8 °C 1014.9 hPa Este 8.4 km/h 15.6 km/h 66% 0.0 mm
22:34 26.6 °C 19.9 °C 1015.1 hPa Este 8.4 km/h 18.5 km/h 66.6% 0.0 mm
22:39 26.4 °C 19.8 °C 1015.1 hPa ENE 8 km/h 19.3 km/h 67% 0.0 mm
22:44 26.4 °C 19.9 °C 1015.1 hPa NE 7.6 km/h 14.5 km/h 67.4% 0.0 mm
22:49 26.3 °C 19.9 °C 1015.2 hPa ENE 6.8 km/h 11.3 km/h 68% 0.0 mm
22:54 26.3 °C 19.9 °C 1015.2 hPa Este 4.7 km/h 9.5 km/h 68% 0.0 mm
22:59 26.3 °C 19.9 °C 1015.2 hPa ENE 4.3 km/h 10 km/h 68% 0.0 mm
23:04 26.2 °C 19.8 °C 1015.5 hPa NE 3.9 km/h 13 km/h 68% 0.0 mm
23:09 26.1 °C 19.7 °C 1015.5 hPa NE 5.2 km/h 14.8 km/h 68% 0.0 mm
23:14 25.9 °C 19.8 °C 1015.5 hPa NE 6.9 km/h 15.6 km/h 68.8% 0.0 mm
23:19 25.8 °C 19.7 °C 1015.5 hPa NE 8 km/h 16.1 km/h 69.1% 0.0 mm
23:24 25.8 °C 19.9 °C 1015.4 hPa NE 9.5 km/h 17.2 km/h 70% 0.0 mm
23:29 25.7 °C 19.8 °C 1015.4 hPa NE 9 km/h 17.7 km/h 70% 0.0 mm
23:34 25.7 °C 20 °C 1015.5 hPa NE 8.4 km/h 13 km/h 70.8% 0.0 mm
23:39 25.5 °C 19.9 °C 1015.5 hPa NE 7.6 km/h 11.3 km/h 71.2% 0.0 mm
23:44 25.4 °C 20 °C 1015.5 hPa North 6.5 km/h 8 km/h 72% 0.0 mm
23:49 25.3 °C 19.9 °C 1015.5 hPa NNO 5.1 km/h 8 km/h 72% 0.0 mm
23:54 25.3 °C 19.9 °C 1015.5 hPa NO 3.2 km/h 8 km/h 72% 0.0 mm
23:59 25.3 °C 20 °C 1015.5 hPa NNO 2.8 km/h 4.8 km/h 72.7% 0.0 mm
Murcia-Puente Tocinos, España
Compliments of Weather Underground - 3 mb

La estación de MeteoMurcia.com, publica sus datos en los siguientes proyectos:

Weather Underground PWS IMURCIAP2 Meteoclimatic www.awekas.at

W3Counter
Web Analytics